»·PEaware :: SWA483 KSAN-KPHX

SWA483 :: KSAN-KPHX

FLIGHT INFORMATION

Flight Status: Arrived
Operator:
Southwest Airlines
More flights by this operator :: More flights under this callsign
Pilot: Brandon V. (17971)
Aircraft: BOEING 737-800
(B738)
More flights by this aircraft type
Origin: KSAN San Diego Intl-Lindbergh
United States
Destination: KPHX Phoenix Sky Harbor Intl
United States
More flights between these airports :: More routes between these airports
Route: +ZZOOO2 IPL J18 BZA DCT HOGGZ HYDRR1
File this flight plan on PilotEdge
Remarks:
Altitude:
(Current/Filed)
35,000ft
Speed:
(Current/Filed)
430kts
Departed: 26-Jul-18 07:15 PM
Arrived: 26-Jul-18 08:12 PM
Distance/Time
Traveled:
264nm/0:57
Distance/Time
To Go:
Arrived

Flight Plot

Page will automatically refresh every two minutes.

Flight plan parsing failed; only flown route is shown


Map Options




Map Legend


Flown Route
Filed Route
Departure Airport
Arrival Airport
Navaid (VOR, NDB)
Fix

Horizontal Profiles

Position Reports

Time Latitude Longitude Heading Altitude Ground
Speed
26-Jul-18 18:50 32.732518 -117.195449 313 25ft 0kts
26-Jul-18 18:51 32.732518 -117.195449 313 25ft 0kts
26-Jul-18 18:52 32.732518 -117.195449 313 25ft 0kts
26-Jul-18 18:53 32.732518 -117.195449 313 25ft 0kts
26-Jul-18 18:54 32.732518 -117.195449 313 25ft 0kts
26-Jul-18 18:55 32.732518 -117.195449 313 25ft 0kts
26-Jul-18 18:56 32.732518 -117.195449 313 25ft 0kts
26-Jul-18 18:57 32.732518 -117.195449 313 25ft 0kts
26-Jul-18 18:58 32.732518 -117.195449 313 25ft 0kts
26-Jul-18 18:59 32.732518 -117.195449 313 25ft 0kts
26-Jul-18 19:00 32.732518 -117.195449 313 25ft 0kts
26-Jul-18 19:01 32.732518 -117.195449 313 25ft 0kts
26-Jul-18 19:02 32.732518 -117.195449 313 25ft 0kts
26-Jul-18 19:03 32.732518 -117.195449 313 25ft 0kts
26-Jul-18 19:04 32.732518 -117.195449 313 25ft 0kts
26-Jul-18 19:05 32.732518 -117.195449 313 25ft 0kts
26-Jul-18 19:06 32.732271 -117.195144 313 25ft 2kts
26-Jul-18 19:07 32.731952 -117.194965 15 25ft 0kts
26-Jul-18 19:08 32.731953 -117.194964 15 25ft 0kts
26-Jul-18 19:09 32.732677 -117.194583 29 25ft 2kts
26-Jul-18 19:10 32.733214 -117.194183 37 25ft 5kts
26-Jul-18 19:11 32.732534 -117.189721 106 25ft 23kts
26-Jul-18 19:12 32.730465 -117.181171 105 25ft 29kts
26-Jul-18 19:13 32.729511 -117.176765 75 25ft 0kts
26-Jul-18 19:14 32.729512 -117.176763 75 25ft 0kts
26-Jul-18 19:15 32.729567 -117.176537 72 25ft 3kts
26-Jul-18 19:16 32.731384 -117.180765 285 25ft 82kts
26-Jul-18 19:17 32.741707 -117.226549 283 748ft 218kts
26-Jul-18 19:18 32.757950 -117.296285 263 3235ft 253kts
26-Jul-18 19:19 32.701394 -117.312061 145 5880ft 274kts
26-Jul-18 19:20 32.641205 -117.253663 133 8535ft 288kts
26-Jul-18 19:21 32.621685 -117.159995 95 10612ft 318kts
26-Jul-18 19:22 32.613055 -117.051675 96 12927ft 337kts
26-Jul-18 19:23 32.603260 -116.939791 96 15665ft 349kts
26-Jul-18 19:24 32.618032 -116.825746 75 18315ft 360kts
26-Jul-18 19:25 32.636179 -116.708017 83 20765ft 370kts
26-Jul-18 19:26 32.648349 -116.584456 83 22820ft 385kts
26-Jul-18 19:27 32.660704 -116.457240 84 24716ft 399kts
26-Jul-18 19:28 32.672956 -116.329559 85 26404ft 411kts
26-Jul-18 19:29 32.685933 -116.192702 85 27989ft 423kts
26-Jul-18 19:30 32.699096 -116.052253 85 29470ft 434kts
26-Jul-18 19:31 32.712223 -115.910929 85 31164ft 433kts
26-Jul-18 19:32 32.725268 -115.768872 85 32538ft 435kts
26-Jul-18 19:33 32.738193 -115.626092 85 33240ft 435kts
26-Jul-18 19:34 32.750013 -115.483798 90 33919ft 433kts
26-Jul-18 19:35 32.753360 -115.344028 91 34409ft 435kts
26-Jul-18 19:36 32.756529 -115.200605 90 34802ft 441kts
26-Jul-18 19:37 32.759909 -115.051579 90 34806ft 461kts
26-Jul-18 19:38 32.763095 -114.897096 90 34804ft 478kts
26-Jul-18 19:39 32.766079 -114.739193 90 34800ft 478kts
26-Jul-18 19:40 32.769038 -114.581753 90 34801ft 478kts
26-Jul-18 19:41 32.771099 -114.424138 90 34893ft 478kts
26-Jul-18 19:42 32.772707 -114.293263 91 33921ft 469kts
26-Jul-18 19:43 32.774450 -114.139217 90 30430ft 467kts
26-Jul-18 19:44 32.783274 -113.987558 83 26994ft 458kts
26-Jul-18 19:45 32.799806 -113.837850 82 24899ft 468kts
26-Jul-18 19:46 32.822989 -113.694219 65 24885ft 408kts
26-Jul-18 19:47 32.891361 -113.586550 48 24886ft 409kts
26-Jul-18 19:48 32.965526 -113.486888 48 24784ft 400kts
26-Jul-18 19:49 33.040436 -113.385854 48 22323ft 408kts
26-Jul-18 19:50 33.108849 -113.293514 49 20918ft 374kts
26-Jul-18 19:51 33.178646 -113.199067 49 19769ft 376kts
26-Jul-18 19:52 33.245757 -113.108021 49 18604ft 349kts
26-Jul-18 19:53 33.276659 -113.004346 87 17545ft 343kts
26-Jul-18 19:54 33.279392 -112.893470 87 16618ft 318kts
26-Jul-18 19:55 33.283416 -112.790317 82 15665ft 315kts
26-Jul-18 19:56 33.293048 -112.687198 82 14671ft 311kts
26-Jul-18 19:57 33.302675 -112.584075 81 13690ft 312kts
26-Jul-18 19:58 33.312102 -112.482080 81 12717ft 309kts
26-Jul-18 19:59 33.321434 -112.380132 80 11751ft 307kts
26-Jul-18 20:00 33.330298 -112.282664 81 10821ft 293kts
26-Jul-18 20:01 33.338889 -112.187672 80 9925ft 282kts
26-Jul-18 20:02 33.346979 -112.097448 80 9061ft 269kts
26-Jul-18 20:03 33.346706 -112.010193 88 8000ft 250kts
26-Jul-18 20:04 33.344399 -111.928462 88 6868ft 243kts
26-Jul-18 20:05 33.342101 -111.848326 88 5998ft 238kts
26-Jul-18 20:06 33.341057 -111.770035 74 5122ft 231kts
26-Jul-18 20:07 33.383464 -111.724638 1 4234ft 215kts
26-Jul-18 20:08 33.428708 -111.764379 292 3329ft 223kts
26-Jul-18 20:09 33.429661 -111.835498 270 3028ft 200kts
26-Jul-18 20:10 33.428677 -111.898399 273 2816ft 171kts
26-Jul-18 20:11 33.428799 -111.951705 272 1961ft 156kts
26-Jul-18 20:12 33.428795 -112.002634 272 1160ft 150kts
26-Jul-18 20:13 33.430439 -112.025467 1 1116ft 11kts
26-Jul-18 20:14 33.432173 -112.024280 90 1116ft 7kts
26-Jul-18 20:15 33.432171 -112.016083 90 1116ft 36kts
26-Jul-18 20:16 33.432155 -112.004119 89 1116ft 34kts
26-Jul-18 20:17 33.433169 -111.999451 8 1116ft 8kts
26-Jul-18 20:18 33.433413 -111.999428 359 1117ft 0kts
26-Jul-18 20:19 33.433413 -111.999428 359 1117ft 0kts
26-Jul-18 20:20 33.433413 -111.999428 359 1117ft 0kts

Navigation Log

Ident Type
Flight plan parsing failed, navigation log unavailable